createdAt,value
2022-11-26T00:00:46.655Z,7.77
2022-11-26T00:03:14.491Z,7.77
2022-11-26T00:05:43.869Z,7.72
2022-11-26T00:08:32.982Z,7.70
2022-11-26T00:11:00.250Z,7.68
2022-11-26T00:13:29.320Z,7.66
2022-11-26T00:15:56.835Z,7.66
2022-11-26T00:18:26.424Z,7.65
2022-11-26T00:21:00.437Z,7.64
2022-11-26T00:23:28.626Z,7.59
2022-11-26T00:25:59.517Z,7.56
2022-11-26T00:28:27.692Z,7.61
2022-11-26T00:30:56.217Z,7.60
2022-11-26T00:33:23.758Z,7.57
2022-11-26T00:35:55.110Z,7.59
2022-11-26T00:38:22.765Z,7.58
2022-11-26T00:40:49.772Z,7.57
2022-11-26T00:43:18.002Z,7.58
2022-11-26T00:45:47.619Z,7.62
2022-11-26T00:48:15.449Z,7.60
2022-11-26T00:50:46.117Z,7.60
2022-11-26T00:53:15.044Z,7.61
2022-11-26T00:55:45.292Z,7.60
2022-11-26T00:58:29.475Z,7.59
2022-11-26T01:00:59.172Z,7.59
2022-11-26T01:03:27.760Z,7.59
2022-11-26T01:05:58.583Z,7.59
2022-11-26T01:08:34.173Z,7.58
2022-11-26T01:11:03.216Z,7.59
2022-11-26T01:13:30.954Z,7.60
2022-11-26T01:16:00.127Z,7.61
2022-11-26T01:18:27.840Z,7.54
2022-11-26T01:20:54.579Z,7.53
2022-11-26T01:23:21.779Z,7.53
2022-11-26T01:25:48.606Z,7.51
2022-11-26T01:28:18.587Z,7.52
2022-11-26T01:30:46.107Z,7.54
2022-11-26T01:33:12.876Z,7.57
2022-11-26T01:35:39.756Z,7.56
2022-11-26T01:38:06.571Z,7.56
2022-11-26T01:40:54.764Z,7.56
2022-11-26T01:43:28.992Z,7.57
2022-11-26T01:45:56.517Z,7.58
2022-11-26T01:48:31.449Z,7.57
2022-11-26T01:51:02.361Z,7.53
2022-11-26T01:53:41.454Z,7.52
2022-11-26T01:56:19.249Z,7.55
2022-11-26T01:58:54.484Z,7.52
2022-11-26T02:01:21.721Z,7.49
2022-11-26T02:03:58.699Z,7.51
2022-11-26T02:06:31.584Z,7.51
2022-11-26T02:09:00.923Z,7.50
2022-11-26T02:11:27.822Z,7.46
2022-11-26T02:14:06.435Z,7.45
2022-11-26T02:16:56.980Z,7.45
2022-11-26T02:20:00.776Z,7.43
2022-11-26T02:23:08.984Z,7.41
2022-11-26T02:26:06.207Z,7.40
2022-11-26T02:28:49.381Z,7.42
2022-11-26T02:31:41.172Z,7.48
2022-11-26T02:34:26.349Z,7.53
2022-11-26T02:37:08.141Z,7.57
2022-11-26T02:39:34.918Z,7.59
2022-11-26T02:42:04.034Z,7.64
2022-11-26T02:44:45.238Z,7.68
2022-11-26T02:47:17.108Z,7.71
2022-11-26T02:49:45.639Z,7.74
2022-11-26T02:52:18.105Z,7.77
2022-11-26T02:54:45.943Z,7.74
2022-11-26T02:57:15.792Z,7.76
2022-11-26T02:59:42.959Z,7.74
2022-11-26T03:02:14.891Z,7.73
2022-11-26T03:04:49.442Z,7.73
2022-11-26T03:07:18.359Z,7.72
2022-11-26T03:09:57.360Z,7.72
2022-11-26T03:12:24.655Z,7.71
2022-11-26T03:14:51.684Z,7.73
2022-11-26T03:17:19.135Z,7.71
2022-11-26T03:19:46.477Z,7.72
2022-11-26T03:22:14.406Z,7.73
2022-11-26T03:24:41.485Z,7.75
2022-11-26T03:27:08.330Z,7.78
2022-11-26T03:29:35.063Z,7.80
2022-11-26T03:32:01.914Z,7.83
2022-11-26T03:34:28.732Z,7.82
2022-11-26T03:36:55.457Z,7.82
2022-11-26T03:39:22.341Z,7.81
2022-11-26T03:41:49.247Z,7.82
2022-11-26T03:44:16.018Z,7.79
2022-11-26T03:46:42.984Z,7.75
2022-11-26T03:49:09.719Z,7.80
2022-11-26T03:51:36.416Z,7.76
2022-11-26T03:54:03.433Z,7.75
2022-11-26T03:56:30.211Z,7.75
2022-11-26T03:58:57.185Z,7.72
2022-11-26T04:01:24.012Z,7.69
2022-11-26T04:03:50.947Z,7.70
2022-11-26T04:06:17.763Z,7.68
2022-11-26T04:08:44.685Z,7.63
2022-11-26T04:11:11.376Z,7.65
2022-11-26T04:13:38.173Z,7.63
2022-11-26T04:16:05.230Z,7.59
2022-11-26T04:18:32.021Z,7.59
2022-11-26T04:20:58.771Z,7.56
2022-11-26T04:23:25.531Z,7.59
2022-11-26T04:25:52.256Z,7.61
2022-11-26T04:28:18.967Z,7.61
2022-11-26T04:30:45.671Z,7.64
2022-11-26T04:33:12.607Z,7.65
2022-11-26T04:35:39.291Z,7.62
2022-11-26T04:38:06.171Z,7.54
2022-11-26T04:40:32.965Z,7.47
2022-11-26T04:42:59.808Z,7.43
2022-11-26T04:45:27.221Z,7.39
2022-11-26T04:47:55.476Z,7.32
2022-11-26T04:50:23.751Z,7.30
2022-11-26T04:52:50.858Z,7.27
2022-11-26T04:55:17.979Z,7.21
2022-11-26T04:57:48.528Z,7.19
2022-11-26T05:00:17.185Z,7.15
2022-11-26T05:02:44.451Z,7.11
2022-11-26T05:05:12.553Z,7.09
2022-11-26T05:07:40.066Z,7.02
2022-11-26T05:10:12.778Z,6.95
2022-11-26T05:12:39.582Z,6.92
2022-11-26T05:15:06.985Z,6.91
2022-11-26T05:17:33.800Z,6.91
2022-11-26T05:20:00.528Z,6.90
2022-11-26T05:22:27.442Z,6.86
2022-11-26T05:24:54.243Z,6.80
2022-11-26T05:27:21.020Z,6.70
2022-11-26T05:29:48.107Z,6.67
2022-11-26T05:32:14.890Z,6.56
2022-11-26T05:34:42.460Z,6.53
2022-11-26T05:37:09.204Z,6.57
2022-11-26T05:39:35.914Z,6.59
2022-11-26T05:42:08.786Z,6.65
2022-11-26T05:44:36.938Z,6.63
2022-11-26T05:47:03.901Z,6.59
2022-11-26T05:49:30.619Z,6.51
2022-11-26T05:51:57.377Z,6.42
2022-11-26T05:54:24.186Z,6.40
2022-11-26T05:56:54.227Z,6.33
2022-11-26T05:59:25.379Z,6.32
2022-11-26T06:01:52.199Z,6.25
2022-11-26T06:04:18.956Z,6.22
2022-11-26T06:06:45.792Z,6.23
2022-11-26T06:09:13.742Z,6.27
2022-11-26T06:11:40.571Z,6.24
2022-11-26T06:14:07.383Z,6.19
2022-11-26T06:16:34.190Z,6.12
2022-11-26T06:19:01.034Z,6.14
2022-11-26T06:21:27.841Z,6.17
2022-11-26T06:23:59.280Z,6.17
2022-11-26T06:26:27.046Z,6.13
2022-11-26T06:28:54.101Z,6.09
2022-11-26T06:31:21.001Z,6.06
2022-11-26T06:33:48.229Z,6.06
2022-11-26T06:36:14.974Z,5.96
2022-11-26T06:38:41.701Z,5.90
2022-11-26T06:41:08.768Z,5.89
2022-11-26T06:43:36.174Z,5.84
2022-11-26T06:46:05.245Z,5.83
2022-11-26T06:48:32.802Z,5.78
2022-11-26T06:51:05.305Z,5.77
2022-11-26T06:53:32.594Z,5.73
2022-11-26T06:56:03.875Z,5.75
2022-11-26T06:58:30.805Z,5.78
2022-11-26T07:00:57.699Z,5.78
2022-11-26T07:03:30.516Z,5.78
2022-11-26T07:06:00.496Z,5.76
2022-11-26T07:08:27.429Z,5.78
2022-11-26T07:10:54.232Z,5.82
2022-11-26T07:13:21.215Z,5.83
2022-11-26T07:15:48.162Z,5.85
2022-11-26T07:18:15.064Z,5.92
2022-11-26T07:20:41.776Z,5.94
2022-11-26T07:23:08.748Z,5.95
2022-11-26T07:25:36.709Z,5.95
2022-11-26T07:28:03.641Z,5.97
2022-11-26T07:30:30.588Z,6.01
2022-11-26T07:32:57.329Z,5.98
2022-11-26T07:35:24.208Z,5.99
2022-11-26T07:37:50.930Z,5.96
2022-11-26T07:40:17.762Z,5.95
2022-11-26T07:42:48.075Z,6.05
2022-11-26T07:45:17.381Z,6.09
2022-11-26T07:47:44.133Z,6.18
2022-11-26T07:50:11.168Z,6.18
2022-11-26T07:52:38.091Z,6.10
2022-11-26T07:55:10.987Z,6.08
2022-11-26T07:57:39.216Z,6.03
2022-11-26T08:00:06.844Z,6.03
2022-11-26T08:02:33.694Z,6.04
2022-11-26T08:05:00.458Z,6.02
2022-11-26T08:07:29.363Z,6.02
2022-11-26T08:09:56.501Z,6.11
2022-11-26T08:12:23.190Z,6.15
2022-11-26T08:14:49.895Z,6.20
2022-11-26T08:17:16.635Z,6.26
2022-11-26T08:19:43.563Z,6.35
2022-11-26T08:22:10.335Z,6.42
2022-11-26T08:24:37.833Z,6.48
2022-11-26T08:27:04.803Z,6.56
2022-11-26T08:29:31.785Z,6.64
2022-11-26T08:31:58.534Z,6.71
2022-11-26T08:34:25.293Z,6.75
2022-11-26T08:36:54.974Z,6.77
2022-11-26T08:39:22.073Z,6.84
2022-11-26T08:41:52.344Z,6.91
2022-11-26T08:44:20.475Z,6.96
2022-11-26T08:46:47.939Z,7.08
2022-11-26T08:49:15.534Z,7.15
2022-11-26T08:51:44.195Z,7.23
2022-11-26T08:54:11.522Z,7.39
2022-11-26T08:56:38.380Z,7.47
2022-11-26T08:59:05.443Z,7.55
2022-11-26T09:01:33.812Z,7.69
2022-11-26T09:04:02.272Z,7.87
2022-11-26T09:06:31.327Z,8.04
2022-11-26T09:09:15.705Z,8.11
2022-11-26T09:11:57.772Z,8.13
2022-11-26T09:14:27.910Z,8.25
2022-11-26T09:16:56.441Z,8.43
2022-11-26T09:19:24.355Z,8.52
2022-11-26T09:21:51.388Z,8.57
2022-11-26T09:24:21.469Z,8.69
2022-11-26T09:26:48.836Z,8.91
2022-11-26T09:29:19.293Z,9.07
2022-11-26T09:32:21.280Z,9.16
2022-11-26T09:34:34.103Z,9.20
2022-11-26T09:37:01.351Z,9.24
2022-11-26T09:39:28.379Z,9.48
2022-11-26T09:42:08.196Z,9.48
2022-11-26T09:45:00.201Z,9.45
2022-11-26T09:47:29.424Z,9.56
2022-11-26T09:50:11.593Z,9.52
2022-11-26T09:52:44.074Z,9.57
2022-11-26T09:55:13.676Z,9.56
2022-11-26T09:57:49.178Z,9.66
2022-11-26T10:00:23.651Z,9.64
2022-11-26T10:02:55.875Z,9.64
2022-11-26T10:05:34.230Z,9.61
2022-11-26T10:08:13.892Z,9.62
2022-11-26T10:10:43.994Z,9.65
2022-11-26T10:13:49.378Z,9.76
2022-11-26T10:16:29.737Z,9.84
2022-11-26T10:19:27.303Z,9.92
2022-11-26T10:22:00.152Z,10.06
2022-11-26T10:24:27.398Z,10.27
2022-11-26T10:27:06.134Z,10.40
2022-11-26T10:29:44.031Z,10.42
2022-11-26T10:32:15.726Z,10.46
2022-11-26T10:34:51.648Z,10.43
2022-11-26T10:37:21.450Z,10.46
2022-11-26T10:40:00.915Z,10.56
2022-11-26T10:42:43.731Z,10.48
2022-11-26T10:45:23.489Z,10.38
2022-11-26T10:47:50.295Z,10.39
2022-11-26T10:50:46.691Z,10.35
2022-11-26T10:53:22.449Z,10.37
2022-11-26T10:55:51.693Z,10.42
2022-11-26T10:58:24.057Z,10.47
2022-11-26T11:00:50.829Z,10.51
2022-11-26T11:03:33.202Z,10.50
2022-11-26T11:06:12.008Z,10.55
2022-11-26T11:08:38.908Z,10.71
2022-11-26T11:11:05.730Z,10.80
2022-11-26T11:13:44.024Z,10.94
2022-11-26T11:16:12.665Z,11.12
2022-11-26T11:18:50.092Z,11.18
2022-11-26T11:21:19.680Z,11.12
2022-11-26T11:24:07.580Z,11.10
2022-11-26T11:26:42.098Z,11.16
2022-11-26T11:29:25.799Z,11.19
2022-11-26T11:31:52.589Z,11.30
2022-11-26T11:34:21.839Z,11.31
2022-11-26T11:37:03.731Z,11.41
2022-11-26T11:39:35.705Z,11.38
2022-11-26T11:42:06.758Z,11.43
2022-11-26T11:44:45.924Z,11.43
2022-11-26T11:47:34.293Z,11.43
2022-11-26T11:50:19.369Z,11.58
2022-11-26T11:53:08.155Z,11.66
2022-11-26T11:56:02.440Z,11.66
2022-11-26T11:58:48.202Z,11.57
2022-11-26T12:01:44.349Z,11.47
2022-11-26T12:04:25.765Z,11.39
2022-11-26T12:07:08.220Z,11.45
2022-11-26T12:09:45.549Z,11.31
2022-11-26T12:12:28.763Z,11.33
2022-11-26T12:15:16.062Z,11.35
2022-11-26T12:18:04.247Z,11.34
2022-11-26T12:20:44.252Z,11.26
2022-11-26T12:23:38.352Z,11.25
2022-11-26T12:26:18.388Z,11.27
2022-11-26T12:29:02.945Z,11.31
2022-11-26T12:31:32.915Z,11.23
2022-11-26T12:34:15.164Z,11.21
2022-11-26T12:37:02.703Z,11.16
2022-11-26T12:39:29.524Z,11.11
2022-11-26T12:42:04.252Z,11.05
2022-11-26T12:44:43.357Z,10.91
2022-11-26T12:47:19.456Z,10.84
2022-11-26T12:50:05.099Z,10.77
2022-11-26T12:52:47.303Z,10.72
2022-11-26T12:55:20.631Z,10.70
2022-11-26T12:58:00.471Z,10.65
2022-11-26T13:00:36.883Z,10.63
2022-11-26T13:03:06.514Z,10.61
2022-11-26T13:05:36.717Z,10.64
2022-11-26T13:08:39.484Z,10.64
2022-11-26T13:11:35.271Z,10.58
2022-11-26T13:14:14.945Z,10.63
2022-11-26T13:16:59.921Z,10.70
2022-11-26T13:19:43.863Z,10.66
2022-11-26T13:22:34.265Z,10.64
2022-11-26T13:25:11.516Z,10.57
2022-11-26T13:28:03.152Z,10.52
2022-11-26T13:31:14.192Z,10.55
2022-11-26T13:34:05.553Z,10.58
2022-11-26T13:36:43.288Z,10.59
2022-11-26T13:39:39.231Z,10.51
2022-11-26T13:42:08.903Z,10.48
2022-11-26T13:45:12.893Z,10.45
2022-11-26T13:47:45.840Z,10.48
2022-11-26T13:50:24.086Z,10.56
2022-11-26T13:53:01.186Z,10.61
2022-11-26T13:55:36.242Z,10.64
2022-11-26T13:58:06.296Z,10.68
2022-11-26T14:00:35.151Z,10.66
2022-11-26T14:03:04.566Z,10.64
2022-11-26T14:05:49.651Z,10.62
2022-11-26T14:08:46.879Z,10.55
2022-11-26T14:11:39.445Z,10.46
2022-11-26T14:14:24.821Z,10.34
2022-11-26T14:17:00.545Z,10.25
2022-11-26T14:19:39.815Z,10.10
2022-11-26T14:22:21.905Z,10.06
2022-11-26T14:24:48.905Z,9.99
2022-11-26T14:27:16.058Z,9.93
2022-11-26T14:29:47.697Z,9.85
2022-11-26T14:32:22.168Z,9.79
2022-11-26T14:34:52.890Z,9.75
2022-11-26T14:37:22.454Z,9.73
2022-11-26T14:40:00.464Z,9.68
2022-11-26T14:42:28.095Z,9.59
2022-11-26T14:45:15.014Z,9.50
2022-11-26T14:47:44.361Z,9.46
2022-11-26T14:50:15.602Z,9.41
2022-11-26T14:52:44.488Z,9.39
2022-11-26T14:55:24.232Z,9.35
2022-11-26T14:57:59.508Z,9.31
2022-11-26T15:00:32.217Z,9.28
2022-11-26T15:03:00.011Z,9.25
2022-11-26T15:05:29.923Z,9.22
2022-11-26T15:08:03.828Z,9.15
2022-11-26T15:10:54.286Z,9.10
2022-11-26T15:13:44.719Z,9.07
2022-11-26T15:16:44.456Z,8.99
2022-11-26T15:19:15.246Z,8.99
2022-11-26T15:21:43.173Z,8.98
2022-11-26T15:24:10.163Z,8.92
2022-11-26T15:26:38.311Z,8.89
2022-11-26T15:29:34.328Z,8.92
2022-11-26T15:32:01.400Z,8.91
2022-11-26T15:34:29.716Z,8.87
2022-11-26T15:36:56.592Z,8.84
2022-11-26T15:39:32.028Z,8.80
2022-11-26T15:42:07.896Z,8.75
2022-11-26T15:44:42.772Z,8.75
2022-11-26T15:47:20.097Z,8.74
2022-11-26T15:49:51.998Z,8.75
2022-11-26T15:52:24.903Z,8.72
2022-11-26T15:55:16.585Z,8.71
2022-11-26T15:57:44.372Z,8.72
2022-11-26T16:00:29.948Z,8.72
2022-11-26T16:02:56.710Z,8.74
2022-11-26T16:05:29.626Z,8.74
2022-11-26T16:07:59.342Z,8.73
2022-11-26T16:10:31.038Z,8.65
2022-11-26T16:13:19.805Z,8.57
2022-11-26T16:16:02.433Z,8.53
2022-11-26T16:18:51.661Z,8.53
2022-11-26T16:21:27.739Z,8.51
2022-11-26T16:23:59.853Z,8.54
2022-11-26T16:26:27.845Z,8.55
2022-11-26T16:28:54.792Z,8.47
2022-11-26T16:31:22.317Z,8.38
2022-11-26T16:33:49.356Z,8.28
2022-11-26T16:36:24.855Z,8.13
2022-11-26T16:38:52.617Z,8.04
2022-11-26T16:41:22.505Z,8.03
2022-11-26T16:43:50.445Z,8.06
2022-11-26T16:46:20.933Z,7.99
2022-11-26T16:48:48.380Z,7.90
2022-11-26T16:51:16.030Z,7.89
2022-11-26T16:53:42.887Z,7.85
2022-11-26T16:56:20.592Z,7.86
2022-11-26T16:58:47.940Z,7.84
2022-11-26T17:01:14.861Z,7.85
2022-11-26T17:03:42.940Z,7.86
2022-11-26T17:06:20.034Z,7.89
2022-11-26T17:11:33.789Z,7.81
2022-11-26T17:14:00.498Z,7.74
2022-11-26T17:16:27.406Z,7.66
2022-11-26T17:18:54.202Z,7.62
2022-11-26T17:21:21.049Z,7.57
2022-11-26T17:23:47.813Z,7.52
2022-11-26T17:26:19.397Z,7.50
2022-11-26T17:28:46.791Z,7.46
2022-11-26T17:31:13.638Z,7.44
2022-11-26T17:33:41.138Z,7.42
2022-11-26T17:36:15.443Z,7.38
2022-11-26T17:38:42.490Z,7.40
2022-11-26T17:41:11.078Z,7.41
2022-11-26T17:43:39.635Z,7.42
2022-11-26T17:46:14.953Z,7.45
2022-11-26T17:48:42.190Z,7.43
2022-11-26T17:51:12.271Z,7.40
2022-11-26T17:53:39.349Z,7.37
2022-11-26T17:56:06.299Z,7.32
2022-11-26T17:58:33.118Z,7.28
2022-11-26T18:00:59.954Z,7.31
2022-11-26T18:03:26.694Z,7.31
2022-11-26T18:05:53.403Z,7.30
2022-11-26T18:08:20.308Z,7.25
2022-11-26T18:10:47.039Z,7.27
2022-11-26T18:13:14.030Z,7.25
2022-11-26T18:15:40.782Z,7.25
2022-11-26T18:18:07.633Z,7.27
2022-11-26T18:20:34.595Z,7.24
2022-11-26T18:23:01.568Z,7.19
2022-11-26T18:25:28.789Z,7.17
2022-11-26T18:27:55.576Z,7.14
2022-11-26T18:30:22.591Z,7.15
2022-11-26T18:32:49.542Z,7.13
2022-11-26T18:35:17.319Z,7.12
2022-11-26T18:37:44.586Z,7.13
2022-11-26T18:40:14.258Z,7.10
2022-11-26T18:42:41.125Z,7.07
2022-11-26T18:45:10.295Z,7.02
2022-11-26T18:47:37.664Z,6.99
2022-11-26T18:50:05.533Z,6.93
2022-11-26T18:52:32.290Z,6.95
2022-11-26T18:54:59.846Z,6.94
2022-11-26T18:57:26.567Z,6.94
2022-11-26T18:59:53.207Z,6.95
2022-11-26T19:02:20.009Z,6.93
2022-11-26T19:04:47.025Z,6.84
2022-11-26T19:07:14.103Z,6.73
2022-11-26T19:09:42.017Z,6.73
2022-11-26T19:12:09.985Z,6.69
2022-11-26T19:14:36.731Z,6.67
2022-11-26T19:17:03.478Z,6.67
2022-11-26T19:19:30.322Z,6.67
2022-11-26T19:22:01.090Z,6.67
2022-11-26T19:24:29.654Z,6.67
2022-11-26T19:26:56.996Z,6.71
2022-11-26T19:29:24.020Z,6.76
2022-11-26T19:31:50.929Z,6.77
2022-11-26T19:34:17.806Z,6.79
2022-11-26T19:36:48.787Z,6.79
2022-11-26T19:39:16.423Z,6.74
2022-11-26T19:41:43.324Z,6.71
2022-11-26T19:44:10.145Z,6.73
2022-11-26T19:46:40.528Z,6.77
2022-11-26T19:49:07.626Z,6.67
2022-11-26T19:51:34.521Z,6.58
2022-11-26T19:54:01.321Z,6.54
2022-11-26T19:56:30.409Z,6.48
2022-11-26T19:58:58.514Z,6.46
2022-11-26T20:01:27.293Z,6.45
2022-11-26T20:03:54.494Z,6.44
2022-11-26T20:06:26.716Z,6.43
2022-11-26T20:08:54.206Z,6.37
2022-11-26T20:11:21.221Z,6.38
2022-11-26T20:13:49.030Z,6.35
2022-11-26T20:16:19.579Z,6.20
2022-11-26T20:18:48.867Z,6.17
2022-11-26T20:21:25.641Z,6.12
2022-11-26T20:23:54.262Z,6.11
2022-11-26T20:26:25.291Z,6.00
2022-11-26T20:28:52.986Z,6.00
2022-11-26T20:31:23.869Z,6.02
2022-11-26T20:33:54.799Z,6.06
2022-11-26T20:36:23.078Z,6.05
2022-11-26T20:38:58.794Z,6.06
2022-11-26T20:41:26.901Z,6.03
2022-11-26T20:43:58.677Z,5.92
2022-11-26T20:46:27.854Z,5.95
2022-11-26T20:48:54.984Z,5.92
2022-11-26T20:51:22.355Z,5.91
2022-11-26T20:53:51.141Z,5.94
2022-11-26T20:56:19.797Z,5.97
2022-11-26T20:58:47.349Z,6.02
2022-11-26T21:01:16.602Z,5.92
2022-11-26T21:03:43.662Z,5.85
2022-11-26T21:06:13.794Z,5.79
2022-11-26T21:08:41.110Z,5.82
2022-11-26T21:11:09.873Z,5.79
2022-11-26T21:13:38.611Z,5.72
2022-11-26T21:16:10.974Z,5.68
2022-11-26T21:18:38.485Z,5.59
2022-11-26T21:21:14.387Z,5.55
2022-11-26T21:23:43.317Z,5.56
2022-11-26T21:26:18.988Z,5.51
2022-11-26T21:28:54.110Z,5.45
2022-11-26T21:31:21.503Z,5.38
2022-11-26T21:33:54.874Z,5.36
2022-11-26T21:36:22.403Z,5.46
2022-11-26T21:38:50.916Z,5.43
2022-11-26T21:41:19.934Z,5.44
2022-11-26T21:43:48.234Z,5.40
2022-11-26T21:46:22.446Z,5.42
2022-11-26T21:48:51.253Z,5.35
2022-11-26T21:51:19.452Z,5.39
2022-11-26T21:53:48.310Z,5.44
2022-11-26T21:56:16.377Z,5.31
2022-11-26T21:58:43.696Z,5.20
2022-11-26T22:01:23.034Z,5.18
2022-11-26T22:03:53.725Z,5.11
2022-11-26T22:06:22.839Z,5.08
2022-11-26T22:08:51.844Z,5.07
2022-11-26T22:11:28.310Z,5.15
2022-11-26T22:13:55.619Z,5.26
2022-11-26T22:16:27.482Z,5.31
2022-11-26T22:18:58.562Z,5.34
2022-11-26T22:21:34.738Z,5.30
2022-11-26T22:24:03.834Z,5.28
2022-11-26T22:26:31.514Z,5.26
2022-11-26T22:28:59.495Z,5.17
2022-11-26T22:31:31.953Z,5.02
2022-11-26T22:34:02.031Z,4.94
2022-11-26T22:36:29.056Z,4.88
2022-11-26T22:38:56.987Z,4.92
2022-11-26T22:41:25.172Z,4.97
2022-11-26T22:43:52.188Z,4.96
2022-11-26T22:46:23.817Z,4.96
2022-11-26T22:48:57.442Z,4.98
2022-11-26T22:51:26.608Z,4.95
2022-11-26T22:53:57.597Z,4.94
2022-11-26T22:56:26.002Z,4.99
2022-11-26T22:58:53.537Z,5.05
2022-11-26T23:01:26.294Z,5.02
2022-11-26T23:03:55.479Z,4.95
2022-11-26T23:06:25.191Z,4.93
2022-11-26T23:08:52.380Z,4.96
2022-11-26T23:11:32.090Z,4.96
2022-11-26T23:13:59.022Z,4.81
2022-11-26T23:16:27.031Z,4.76
2022-11-26T23:18:55.658Z,4.69
2022-11-26T23:21:28.768Z,4.70
2022-11-26T23:23:56.701Z,4.72
2022-11-26T23:26:27.561Z,4.79
2022-11-26T23:28:59.229Z,4.89
2022-11-26T23:31:28.763Z,4.95
2022-11-26T23:33:55.966Z,5.01
2022-11-26T23:36:24.496Z,4.95
2022-11-26T23:38:52.081Z,4.88
2022-11-26T23:41:19.592Z,4.73
2022-11-26T23:43:46.558Z,4.73
2022-11-26T23:46:22.374Z,4.66
2022-11-26T23:48:50.651Z,4.55
2022-11-26T23:51:24.518Z,4.47
2022-11-26T23:53:53.914Z,4.40
2022-11-26T23:56:24.174Z,4.29
2022-11-26T23:58:53.476Z,4.25
